createdAt,value
2022-08-05T00:02:27.601Z,94731.25
2022-08-05T00:04:56.122Z,94737.13
2022-08-05T00:07:59.047Z,94729.81
2022-08-05T00:10:11.151Z,94732.97
2022-08-05T00:12:56.086Z,94735.69
2022-08-05T00:15:56.074Z,94725.78
2022-08-05T00:18:21.296Z,94727.59
2022-08-05T00:20:48.973Z,94724.81
2022-08-05T00:23:16.046Z,94732.28
2022-08-05T00:25:45.536Z,94728.81
2022-08-05T00:28:13.439Z,94722.19
2022-08-05T00:30:41.075Z,94712.72
2022-08-05T00:33:15.718Z,94718.47
2022-08-05T00:36:15.234Z,94712.44
2022-08-05T00:38:45.377Z,94719.97
2022-08-05T00:41:13.043Z,94712.31
2022-08-05T00:43:47.018Z,94711.72
2022-08-05T00:46:16.622Z,94714.53
2022-08-05T00:48:50.732Z,94709.00
2022-08-05T00:51:50.586Z,94718.72
2022-08-05T00:54:06.125Z,94713.97
2022-08-05T00:56:33.045Z,94717.06
2022-08-05T00:59:00.192Z,94715.06
2022-08-05T01:01:48.192Z,94707.13
2022-08-05T01:04:15.719Z,94704.75
2022-08-05T01:06:43.788Z,94707.94
2022-08-05T01:09:15.552Z,94707.28
2022-08-05T01:11:49.128Z,94705.84
2022-08-05T01:14:28.426Z,94712.94
2022-08-05T01:17:25.530Z,94713.06
2022-08-05T01:20:01.356Z,94707.28
2022-08-05T01:22:50.439Z,94711.59
2022-08-05T01:25:53.260Z,94698.44
2022-08-05T01:28:26.738Z,94707.06
2022-08-05T01:31:04.871Z,94709.50
2022-08-05T01:33:35.483Z,94715.22
2022-08-05T01:36:07.214Z,94717.44
2022-08-05T01:38:40.197Z,94712.16
2022-08-05T01:41:08.165Z,94717.78
2022-08-05T01:43:35.963Z,94718.00
2022-08-05T01:46:07.160Z,94719.50
2022-08-05T01:48:44.186Z,94716.78
2022-08-05T01:51:13.096Z,94723.75
2022-08-05T01:53:57.534Z,94724.34
2022-08-05T01:58:13.193Z,94725.75
2022-08-05T01:59:17.263Z,94726.38
2022-08-05T02:01:47.762Z,94726.28
2022-08-05T02:04:17.182Z,94725.13
2022-08-05T02:06:45.016Z,94729.81
2022-08-05T02:09:12.217Z,94730.69
2022-08-05T02:11:52.688Z,94730.69
2022-08-05T02:14:29.110Z,94728.31
2022-08-05T02:17:16.819Z,94731.72
2022-08-05T02:20:01.990Z,94726.28
2022-08-05T02:22:31.772Z,94726.13
2022-08-05T02:25:02.655Z,94716.72
2022-08-05T02:27:57.957Z,94734.28
2022-08-05T02:30:18.128Z,94722.94
2022-08-05T02:32:48.193Z,94725.94
2022-08-05T02:35:18.983Z,94722.00
2022-08-05T02:37:54.096Z,94722.69
2022-08-05T02:40:21.615Z,94722.59
2022-08-05T02:42:52.978Z,94723.22
2022-08-05T02:45:24.232Z,94728.56
2022-08-05T02:47:58.645Z,94729.28
2022-08-05T02:50:43.608Z,94729.06
2022-08-05T02:53:15.946Z,94722.28
2022-08-05T02:55:54.114Z,94722.25
2022-08-05T02:58:23.162Z,94721.28
2022-08-05T03:00:55.462Z,94726.50
2022-08-05T03:03:23.524Z,94728.66
2022-08-05T03:06:53.881Z,94726.03
2022-08-05T03:08:39.054Z,94720.31
2022-08-05T03:11:55.323Z,94728.66
2022-08-05T03:14:08.068Z,94731.16
2022-08-05T03:16:35.695Z,94721.75
2022-08-05T03:19:04.260Z,94729.47
2022-08-05T03:21:41.573Z,94724.03
2022-08-05T03:24:17.097Z,94728.66
2022-08-05T03:26:43.992Z,94723.41
2022-08-05T03:29:17.312Z,94728.97
2022-08-05T03:31:56.652Z,94725.78
2022-08-05T03:34:25.687Z,94727.28
2022-08-05T03:36:53.993Z,94727.28
2022-08-05T03:39:27.148Z,94725.88
2022-08-05T03:41:56.308Z,94720.97
2022-08-05T03:44:23.648Z,94724.28
2022-08-05T03:46:50.642Z,94731.75
2022-08-05T03:49:17.584Z,94730.88
2022-08-05T03:52:38.456Z,94730.88
2022-08-05T03:56:05.686Z,94720.41
2022-08-05T03:57:51.046Z,94726.28
2022-08-05T04:00:18.165Z,94727.88
2022-08-05T04:02:51.956Z,94729.63
2022-08-05T04:05:19.932Z,94733.34
2022-08-05T04:07:58.575Z,94719.78
2022-08-05T04:10:32.028Z,94735.09
2022-08-05T04:12:59.224Z,94725.94
2022-08-05T04:15:32.799Z,94733.50
2022-08-05T04:18:06.669Z,94730.44
2022-08-05T04:20:34.395Z,94725.69
2022-08-05T04:23:02.245Z,94728.56
2022-08-05T04:25:49.425Z,94724.53
2022-08-05T04:28:17.983Z,94728.31
2022-08-05T04:30:45.619Z,94729.81
2022-08-05T04:33:12.782Z,94722.44
2022-08-05T04:36:16.356Z,94726.13
2022-08-05T04:38:39.735Z,94723.31
2022-08-05T04:41:07.595Z,94723.47
2022-08-05T04:43:37.739Z,94732.97
2022-08-05T04:46:07.543Z,94725.31
2022-08-05T04:48:34.532Z,94724.97
2022-08-05T04:51:03.500Z,94721.59
2022-08-05T04:53:38.627Z,94724.59
2022-08-05T04:56:32.957Z,94726.84
2022-08-05T04:58:55.767Z,94723.28
2022-08-05T05:01:33.569Z,94716.47
2022-08-05T05:04:01.056Z,94711.16
2022-08-05T05:06:39.125Z,94709.44
2022-08-05T05:09:14.164Z,94717.06
2022-08-05T05:11:55.496Z,94710.88
2022-08-05T05:14:27.983Z,94712.94
2022-08-05T05:17:02.081Z,94715.06
2022-08-05T05:19:36.394Z,94715.13
2022-08-05T05:22:24.136Z,94716.75
2022-08-05T05:24:57.795Z,94712.16
2022-08-05T05:27:44.730Z,94716.13
2022-08-05T05:30:31.357Z,94714.03
2022-08-05T05:33:09.422Z,94718.03
2022-08-05T05:35:44.049Z,94718.66
2022-08-05T05:38:12.875Z,94712.38
2022-08-05T05:40:47.936Z,94716.34
2022-08-05T05:43:22.209Z,94714.16
2022-08-05T05:45:55.210Z,94717.44
2022-08-05T05:48:27.364Z,94717.44
2022-08-05T05:50:54.782Z,94718.28
2022-08-05T05:53:22.203Z,94723.19
2022-08-05T05:55:51.605Z,94717.03
2022-08-05T05:58:30.349Z,94722.66
2022-08-05T06:01:02.537Z,94723.97
2022-08-05T06:04:00.816Z,94720.22
2022-08-05T06:06:27.953Z,94725.69
2022-08-05T06:09:00.028Z,94727.81
2022-08-05T06:11:29.045Z,94733.78
2022-08-05T06:13:56.257Z,94728.03
2022-08-05T06:16:36.665Z,94719.16
2022-08-05T06:19:05.626Z,94718.50
2022-08-05T06:21:36.769Z,94723.25
2022-08-05T06:24:11.701Z,94729.47
2022-08-05T06:26:39.449Z,94715.44
2022-08-05T06:29:43.142Z,94715.28
2022-08-05T06:31:59.958Z,94723.31
2022-08-05T06:34:27.848Z,94721.03
2022-08-05T06:36:58.160Z,94721.50
2022-08-05T06:39:27.020Z,94719.31
2022-08-05T06:41:54.876Z,94718.25
2022-08-05T06:44:22.010Z,94715.63
2022-08-05T06:46:50.813Z,94722.41
2022-08-05T06:49:18.814Z,94723.69
2022-08-05T06:51:48.593Z,94716.66
2022-08-05T06:54:18.151Z,94716.75
2022-08-05T06:56:54.448Z,94719.19
2022-08-05T06:59:22.064Z,94713.38
2022-08-05T07:01:52.926Z,94711.47
2022-08-05T07:04:20.301Z,94716.31
2022-08-05T07:06:47.057Z,94716.00
2022-08-05T07:09:17.446Z,94714.13
2022-08-05T07:11:51.427Z,94710.66
2022-08-05T07:14:37.263Z,94715.03
2022-08-05T07:17:58.406Z,94714.31
2022-08-05T07:22:42.168Z,94724.94
2022-08-05T07:25:22.869Z,94713.22
2022-08-05T07:28:01.480Z,94719.16
2022-08-05T07:30:38.537Z,94720.41
2022-08-05T07:33:09.753Z,94720.41
2022-08-05T07:36:04.335Z,94716.13
2022-08-05T07:38:34.420Z,94713.78
2022-08-05T07:41:35.215Z,94720.88
2022-08-05T07:43:57.196Z,94715.44
2022-08-05T07:46:28.014Z,94716.22
2022-08-05T07:49:02.125Z,94714.25
2022-08-05T07:51:36.917Z,94715.44
2022-08-05T07:54:05.677Z,94713.84
2022-08-05T07:57:01.412Z,94715.41
2022-08-05T07:59:31.057Z,94713.06
2022-08-05T08:02:15.915Z,94712.66
2022-08-05T08:04:45.290Z,94710.66
2022-08-05T08:07:13.035Z,94705.91
2022-08-05T08:09:40.078Z,94701.97
2022-08-05T08:12:15.915Z,94705.88
2022-08-05T08:14:54.241Z,94704.66
2022-08-05T08:17:21.784Z,94708.19
2022-08-05T08:20:10.331Z,94701.84
2022-08-05T08:22:36.128Z,94706.13
2022-08-05T08:25:03.918Z,94705.63
2022-08-05T08:27:47.588Z,94712.63
2022-08-05T08:30:30.093Z,94706.63
2022-08-05T08:33:02.701Z,94704.56
2022-08-05T08:35:35.255Z,94704.50
2022-08-05T08:38:08.650Z,94705.94
2022-08-05T08:40:50.452Z,94709.75
2022-08-05T08:45:01.585Z,94705.72
2022-08-05T08:46:09.993Z,94704.00
2022-08-05T08:49:07.841Z,94697.13
2022-08-05T08:52:03.798Z,94702.16
2022-08-05T08:54:19.561Z,94692.78
2022-08-05T08:56:47.767Z,94693.34
2022-08-05T08:59:19.420Z,94695.19
2022-08-05T09:01:57.438Z,94686.50
2022-08-05T09:04:30.455Z,94692.69
2022-08-05T09:06:57.658Z,94685.41
2022-08-05T09:09:26.099Z,94691.59
2022-08-05T09:12:15.304Z,94679.94
2022-08-05T09:14:58.583Z,94672.50
2022-08-05T09:17:40.606Z,94676.31
2022-08-05T09:20:11.053Z,94676.09
2022-08-05T09:22:56.397Z,94667.03
2022-08-05T09:26:03.232Z,94659.03
2022-08-05T09:28:21.545Z,94660.56
2022-08-05T09:30:55.587Z,94653.28
2022-08-05T09:33:23.710Z,94656.75
2022-08-05T09:36:11.741Z,94656.47
2022-08-05T09:38:56.792Z,94650.94
2022-08-05T09:41:24.280Z,94654.94
2022-08-05T09:43:52.811Z,94640.75
2022-08-05T09:46:32.358Z,94649.88
2022-08-05T09:49:07.820Z,94650.69
2022-08-05T09:51:49.450Z,94655.13
2022-08-05T09:54:21.429Z,94642.63
2022-08-05T09:56:56.112Z,94641.88
2022-08-05T09:59:27.701Z,94640.03
2022-08-05T10:01:57.810Z,94634.88
2022-08-05T10:04:35.471Z,94637.75
2022-08-05T10:07:19.499Z,94633.75
2022-08-05T10:10:15.285Z,94622.88
2022-08-05T10:12:49.955Z,94623.22
2022-08-05T10:15:22.952Z,94628.13
2022-08-05T10:18:27.618Z,94624.81
2022-08-05T10:20:57.434Z,94608.03
2022-08-05T10:23:56.089Z,94613.00
2022-08-05T10:26:31.690Z,94616.47
2022-08-05T10:28:59.933Z,94619.78
2022-08-05T10:32:54.908Z,94602.97
2022-08-05T10:34:14.330Z,94612.81
2022-08-05T10:36:44.307Z,94606.34
2022-08-05T10:39:25.243Z,94599.81
2022-08-05T10:42:15.759Z,94605.53
2022-08-05T10:44:46.390Z,94600.72
2022-08-05T10:47:26.930Z,94596.75
2022-08-05T10:50:36.213Z,94592.09
2022-08-05T10:53:01.704Z,94589.97
2022-08-05T10:55:38.473Z,94594.38
2022-08-05T10:58:20.741Z,94591.63
2022-08-05T11:00:55.195Z,94586.28
2022-08-05T11:03:29.958Z,94583.03
2022-08-05T11:06:31.214Z,94581.94
2022-08-05T11:09:39.255Z,94578.56
2022-08-05T11:12:45.390Z,94575.72
2022-08-05T11:16:01.193Z,94577.78
2022-08-05T11:18:30.216Z,94570.03
2022-08-05T11:21:00.806Z,94566.88
2022-08-05T11:24:02.765Z,94568.22
2022-08-05T11:26:33.383Z,94569.66
2022-08-05T11:29:13.498Z,94570.56
2022-08-05T11:31:58.023Z,94568.53
2022-08-05T11:34:37.922Z,94570.72
2022-08-05T11:38:14.259Z,94559.72
2022-08-05T11:39:55.402Z,94558.63
2022-08-05T11:42:28.561Z,94553.59
2022-08-05T11:45:00.951Z,94556.97
2022-08-05T11:47:49.294Z,94552.25
2022-08-05T11:50:16.230Z,94551.69
2022-08-05T11:52:44.135Z,94553.66
2022-08-05T11:55:13.643Z,94556.13
2022-08-05T11:58:09.742Z,94555.97
2022-08-05T12:00:32.605Z,94552.81
2022-08-05T12:03:29.412Z,94546.59
2022-08-05T12:06:03.397Z,94547.00
2022-08-05T12:08:39.908Z,94547.72
2022-08-05T12:11:28.321Z,94538.16
2022-08-05T12:14:08.644Z,94536.69
2022-08-05T12:16:41.400Z,94539.59
2022-08-05T12:20:27.526Z,94526.69
2022-08-05T12:22:01.117Z,94534.34
2022-08-05T12:24:28.333Z,94530.53
2022-08-05T12:26:57.044Z,94525.59
2022-08-05T12:29:25.730Z,94533.84
2022-08-05T12:32:02.076Z,94523.13
2022-08-05T12:34:31.475Z,94531.72
2022-08-05T12:37:07.702Z,94527.25
2022-08-05T12:39:37.118Z,94530.41
2022-08-05T12:42:08.436Z,94528.06
2022-08-05T12:44:35.648Z,94519.53
2022-08-05T12:47:02.917Z,94516.47
2022-08-05T12:50:03.483Z,94529.69
2022-08-05T12:52:38.516Z,94517.56
2022-08-05T12:55:26.543Z,94515.72
2022-08-05T12:58:51.004Z,94507.88
2022-08-05T13:02:02.062Z,94508.88
2022-08-05T13:03:34.538Z,94508.38
2022-08-05T13:06:12.863Z,94508.75
2022-08-05T13:08:40.136Z,94498.69
2022-08-05T13:11:08.143Z,94495.38
2022-08-05T13:14:05.169Z,94494.75
2022-08-05T13:16:27.757Z,94489.66
2022-08-05T13:18:58.423Z,94488.38
2022-08-05T13:21:28.612Z,94487.97
2022-08-05T13:24:05.418Z,94489.44
2022-08-05T13:26:32.528Z,94485.00
2022-08-05T13:28:59.546Z,94474.88
2022-08-05T13:32:03.311Z,94483.06
2022-08-05T13:34:22.026Z,94474.88
2022-08-05T13:36:52.625Z,94478.31
2022-08-05T13:40:13.080Z,94470.94
2022-08-05T13:42:06.550Z,94471.72
2022-08-05T13:44:34.614Z,94474.69
2022-08-05T13:47:08.630Z,94472.06
2022-08-05T13:49:36.365Z,94469.59
2022-08-05T13:52:16.806Z,94471.22
2022-08-05T13:54:43.642Z,94470.19
2022-08-05T13:57:20.753Z,94462.09
2022-08-05T13:59:57.429Z,94454.91
2022-08-05T14:02:29.698Z,94465.88
2022-08-05T14:05:15.406Z,94451.91
2022-08-05T14:08:03.233Z,94452.84
2022-08-05T14:10:33.229Z,94451.91
2022-08-05T14:13:00.272Z,94456.06
2022-08-05T14:16:09.326Z,94455.78
2022-08-05T14:18:18.467Z,94454.84
2022-08-05T14:20:52.854Z,94445.75
2022-08-05T14:23:24.620Z,94447.53
2022-08-05T14:25:54.187Z,94439.56
2022-08-05T14:28:27.083Z,94441.63
2022-08-05T14:30:55.158Z,94446.50
2022-08-05T14:33:22.652Z,94440.63
2022-08-05T14:35:51.721Z,94435.75
2022-08-05T14:38:32.426Z,94430.06
2022-08-05T14:41:01.876Z,94431.09
2022-08-05T14:43:58.767Z,94423.75
2022-08-05T14:46:19.723Z,94422.53
2022-08-05T14:48:49.937Z,94416.41
2022-08-05T14:51:17.709Z,94414.91
2022-08-05T14:53:45.328Z,94418.66
2022-08-05T14:56:32.329Z,94411.97
2022-08-05T14:58:59.101Z,94416.25
2022-08-05T15:01:47.118Z,94407.84
2022-08-05T15:04:14.846Z,94412.28
2022-08-05T15:06:41.713Z,94408.28
2022-08-05T15:09:16.122Z,94405.69
2022-08-05T15:12:03.940Z,94404.19
2022-08-05T15:14:34.854Z,94405.19
2022-08-05T15:17:14.725Z,94403.34
2022-08-05T15:19:57.006Z,94409.53
2022-08-05T15:22:26.973Z,94403.63
2022-08-05T15:24:55.422Z,94411.59
2022-08-05T15:27:22.470Z,94391.59
2022-08-05T15:29:54.250Z,94394.66
2022-08-05T15:32:27.468Z,94394.94
2022-08-05T15:34:56.686Z,94392.88
2022-08-05T15:38:34.145Z,94391.06
2022-08-05T15:41:01.990Z,94391.59
2022-08-05T15:43:09.333Z,94391.09
2022-08-05T15:45:45.661Z,94396.19
2022-08-05T15:48:14.408Z,94383.88
2022-08-05T15:50:41.681Z,94384.63
2022-08-05T15:53:12.494Z,94382.81
2022-08-05T15:56:02.350Z,94384.41
2022-08-05T15:58:28.413Z,94383.84
2022-08-05T16:01:11.549Z,94384.13
2022-08-05T16:03:43.003Z,94386.44
2022-08-05T16:06:11.523Z,94388.44
2022-08-05T16:08:38.844Z,94384.06
2022-08-05T16:11:07.168Z,94380.78
2022-08-05T16:13:35.348Z,94389.25
2022-08-05T16:16:05.588Z,94391.81
2022-08-05T16:18:35.449Z,94389.84
2022-08-05T16:21:20.579Z,94393.25
2022-08-05T16:24:06.451Z,94383.84
2022-08-05T16:26:53.890Z,94384.13
2022-08-05T16:29:24.575Z,94388.78
2022-08-05T16:31:57.136Z,94382.50
2022-08-05T16:34:25.577Z,94388.72
2022-08-05T16:36:53.234Z,94387.25
2022-08-05T16:39:21.042Z,94393.66
2022-08-05T16:42:14.699Z,94380.81
2022-08-05T16:44:35.154Z,94384.84
2022-08-05T16:47:04.690Z,94389.53
2022-08-05T16:49:31.603Z,94384.53
2022-08-05T16:51:58.514Z,94394.34
2022-08-05T16:54:31.844Z,94394.31
2022-08-05T16:56:59.819Z,94393.69
2022-08-05T16:59:27.892Z,94388.53
2022-08-05T17:01:57.646Z,94397.06
2022-08-05T17:04:27.289Z,94392.53
2022-08-05T17:06:55.653Z,94389.06
2022-08-05T17:09:27.229Z,94386.38
2022-08-05T17:11:59.209Z,94395.34
2022-08-05T17:14:37.587Z,94390.03
2022-08-05T17:17:14.184Z,94390.81
2022-08-05T17:19:45.393Z,94391.50
2022-08-05T17:22:17.895Z,94394.16
2022-08-05T17:24:51.398Z,94390.66
2022-08-05T17:27:25.443Z,94394.25
2022-08-05T17:29:59.734Z,94402.94
2022-08-05T17:32:29.446Z,94404.38
2022-08-05T17:34:58.286Z,94407.16
2022-08-05T17:37:40.865Z,94399.25
2022-08-05T17:40:13.352Z,94411.63
2022-08-05T17:42:41.345Z,94406.69
2022-08-05T17:45:20.825Z,94401.16
2022-08-05T17:47:53.943Z,94406.59
2022-08-05T17:50:29.470Z,94396.25
2022-08-05T17:53:01.225Z,94397.31
2022-08-05T17:55:38.022Z,94399.97
2022-08-05T17:58:09.414Z,94400.78
2022-08-05T18:00:36.778Z,94406.16
2022-08-05T18:03:11.800Z,94410.00
2022-08-05T18:05:53.705Z,94404.56
2022-08-05T18:08:21.340Z,94410.53
2022-08-05T18:10:48.211Z,94412.78
2022-08-05T18:13:15.551Z,94413.28
2022-08-05T18:15:42.838Z,94417.13
2022-08-05T18:18:11.712Z,94419.63
2022-08-05T18:20:39.029Z,94424.97
2022-08-05T18:23:11.342Z,94428.75
2022-08-05T18:25:45.355Z,94435.25
2022-08-05T18:28:16.648Z,94432.91
2022-08-05T18:30:45.054Z,94437.69
2022-08-05T18:33:13.447Z,94433.28
2022-08-05T18:36:00.937Z,94440.09
2022-08-05T18:38:28.662Z,94438.44
2022-08-05T18:41:53.539Z,94440.72
2022-08-05T18:43:43.250Z,94435.75
2022-08-05T18:46:20.231Z,94442.59
2022-08-05T18:48:51.850Z,94449.00
2022-08-05T18:52:04.882Z,94451.41
2022-08-05T18:54:28.465Z,94447.09
2022-08-05T18:57:01.824Z,94444.81
2022-08-05T18:59:43.729Z,94456.19
2022-08-05T19:02:26.720Z,94456.66
2022-08-05T19:05:02.272Z,94463.81
2022-08-05T19:07:45.394Z,94459.84
2022-08-05T19:10:14.380Z,94465.13
2022-08-05T19:12:41.570Z,94457.31
2022-08-05T19:15:10.612Z,94457.31
2022-08-05T19:18:08.571Z,94451.66
2022-08-05T19:20:37.050Z,94451.31
2022-08-05T19:23:08.696Z,94460.81
2022-08-05T19:26:02.136Z,94453.41
2022-08-05T19:28:29.907Z,94448.34
2022-08-05T19:30:57.239Z,94454.41
2022-08-05T19:33:35.064Z,94445.88
2022-08-05T19:36:06.132Z,94452.38
2022-08-05T19:38:35.910Z,94452.09
2022-08-05T19:41:06.988Z,94448.56
2022-08-05T19:44:06.256Z,94458.69
2022-08-05T19:46:30.639Z,94452.13
2022-08-05T19:49:07.019Z,94454.97
2022-08-05T19:52:13.316Z,94454.75
2022-08-05T19:54:31.143Z,94460.78
2022-08-05T19:57:08.569Z,94458.16
2022-08-05T19:59:54.820Z,94456.25
2022-08-05T20:02:28.148Z,94459.09
2022-08-05T20:04:59.019Z,94455.16
2022-08-05T20:07:46.987Z,94450.47
2022-08-05T20:10:14.618Z,94460.75
2022-08-05T20:12:47.984Z,94458.44
2022-08-05T20:15:47.761Z,94464.41
2022-08-05T20:18:10.873Z,94455.88
2022-08-05T20:20:55.187Z,94453.97
2022-08-05T20:23:22.989Z,94453.19
2022-08-05T20:25:52.273Z,94448.59
2022-08-05T20:28:20.731Z,94456.13
2022-08-05T20:30:49.479Z,94457.31
2022-08-05T20:33:16.408Z,94455.75
2022-08-05T20:35:45.676Z,94456.97
2022-08-05T20:38:19.991Z,94449.53
2022-08-05T20:40:50.373Z,94459.72
2022-08-05T20:43:17.611Z,94460.53
2022-08-05T20:46:06.850Z,94455.44
2022-08-05T20:48:35.742Z,94447.59
2022-08-05T20:51:08.083Z,94449.53
2022-08-05T20:53:36.477Z,94449.56
2022-08-05T20:56:08.777Z,94440.09
2022-08-05T20:58:36.998Z,94445.19
2022-08-05T21:01:04.565Z,94445.97
2022-08-05T21:03:34.348Z,94448.72
2022-08-05T21:06:02.082Z,94440.09
2022-08-05T21:08:41.611Z,94444.06
2022-08-05T21:11:12.652Z,94443.28
2022-08-05T21:13:55.852Z,94438.56
2022-08-05T21:16:30.202Z,94442.88
2022-08-05T21:19:01.702Z,94447.22
2022-08-05T21:21:39.063Z,94440.13
2022-08-05T21:24:13.015Z,94447.25
2022-08-05T21:26:41.208Z,94450.00
2022-08-05T21:29:10.142Z,94442.56
2022-08-05T21:31:41.598Z,94448.03
2022-08-05T21:34:10.512Z,94452.38
2022-08-05T21:36:38.075Z,94453.53
2022-08-05T21:39:05.091Z,94456.31
2022-08-05T21:41:35.521Z,94449.22
2022-08-05T21:44:04.310Z,94453.97
2022-08-05T21:46:34.951Z,94459.44
2022-08-05T21:49:02.609Z,94452.72
2022-08-05T21:52:22.459Z,94453.53
2022-08-05T21:54:27.875Z,94452.34
2022-08-05T21:57:21.564Z,94455.88
2022-08-05T22:00:02.130Z,94458.16
2022-08-05T22:02:39.538Z,94454.94
2022-08-05T22:05:09.299Z,94446.22
2022-08-05T22:07:40.410Z,94455.22
2022-08-05T22:10:27.116Z,94451.31
2022-08-05T22:12:58.858Z,94448.94
2022-08-05T22:16:00.887Z,94447.75
2022-08-05T22:18:14.545Z,94451.59
2022-08-05T22:20:41.788Z,94453.53
2022-08-05T22:24:02.382Z,94456.28
2022-08-05T22:26:34.760Z,94451.97
2022-08-05T22:29:02.415Z,94457.47
2022-08-05T22:31:30.022Z,94449.94
2022-08-05T22:34:01.172Z,94454.63
2022-08-05T22:36:28.514Z,94446.41
2022-08-05T22:38:56.685Z,94442.97
2022-08-05T22:42:05.044Z,94438.66
2022-08-05T22:44:11.871Z,94449.53
2022-08-05T22:46:40.709Z,94448.84
2022-08-05T22:49:12.168Z,94445.31
2022-08-05T22:52:05.388Z,94437.47
2022-08-05T22:54:35.442Z,94434.63
2022-08-05T22:57:02.843Z,94439.72
2022-08-05T22:59:46.582Z,94442.06
2022-08-05T23:02:18.195Z,94438.03
2022-08-05T23:04:51.142Z,94438.72
2022-08-05T23:07:18.935Z,94443.38
2022-08-05T23:09:56.993Z,94448.09
2022-08-05T23:12:28.879Z,94444.94
2022-08-05T23:14:56.128Z,94444.16
2022-08-05T23:17:35.005Z,94440.53
2022-08-05T23:20:16.440Z,94435.41
2022-08-05T23:22:47.536Z,94447.84
2022-08-05T23:25:17.663Z,94438.72
2022-08-05T23:28:03.989Z,94444.59
2022-08-05T23:30:40.451Z,94433.78
2022-08-05T23:33:16.435Z,94453.66
2022-08-05T23:35:49.327Z,94454.56
2022-08-05T23:38:16.412Z,94450.44
2022-08-05T23:40:49.589Z,94453.13
2022-08-05T23:43:25.700Z,94451.50
2022-08-05T23:46:04.020Z,94445.66
2022-08-05T23:48:30.894Z,94451.09
2022-08-05T23:50:58.656Z,94452.63
2022-08-05T23:53:28.345Z,94441.28
2022-08-05T23:56:13.171Z,94452.59
2022-08-05T23:58:46.929Z,94451.50
